Time;durP1;ratioP1;P1;durP2;ratioP2;P2;SDS_P1;SDS_P2;PMS_P1;PMS_P2;Temp;Humidity;BMP_temperature;BMP_pressure;BME280_temperature;BME280_humidity;BME280_pressure;Samples;Min_cycle;Max_cycle;Signal;HPM_P1;HPM_P2
2024/03/15 00:02:20;;;;;;;2.95;1.80;;;;;;;;;;5055849;28;20114;-60
2024/03/15 00:04:46;;;;;;;2.97;1.70;;;;;;;;;;5056384;28;20336;-59
2024/03/15 00:07:12;;;;;;;3.03;2.10;;;;;;;;;;5055867;28;20082;-60
2024/03/15 00:09:38;;;;;;;7.60;2.47;;;;;;;;;;5056098;28;20025;-60
2024/03/15 00:12:04;;;;;;;3.03;2.05;;;;;;;;;;5055985;28;20036;-59
2024/03/15 00:14:30;;;;;;;3.75;1.90;;;;;;;;;;5055585;28;20429;-59
2024/03/15 00:16:56;;;;;;;4.38;2.78;;;;;;;;;;5055553;28;20025;-59
2024/03/15 00:19:22;;;;;;;3.15;2.17;;;;;;;;;;5056175;28;20367;-59
2024/03/15 00:21:48;;;;;;;5.90;2.60;;;;;;;;;;5055842;28;20100;-59
2024/03/15 00:24:14;;;;;;;3.08;2.40;;;;;;;;;;5055516;28;20036;-59
2024/03/15 00:26:41;;;;;;;5.25;2.92;;;;;;;;;;5055471;28;20056;-59
2024/03/15 00:29:07;;;;;;;3.17;2.15;;;;;;;;;;5055640;28;20410;-59
2024/03/15 00:31:33;;;;;;;3.40;2.10;;;;;;;;;;5055328;28;20036;-59
2024/03/15 00:33:59;;;;;;;3.92;2.30;;;;;;;;;;5055607;28;20082;-59
2024/03/15 00:36:26;;;;;;;3.38;2.47;;;;;;;;;;5055329;28;20036;-59
2024/03/15 00:38:55;;;;;;;2.85;2.25;;;;;;;;;;5055198;28;20118;-59
2024/03/15 00:41:22;;;;;;;2.78;1.98;;;;;;;;;;5055612;28;20032;-59
2024/03/15 00:43:48;;;;;;;4.55;2.75;;;;;;;;;;5054450;28;20033;-59
2024/03/15 00:46:15;;;;;;;3.33;2.42;;;;;;;;;;5055274;28;20356;-59
2024/03/15 00:48:41;;;;;;;2.90;2.28;;;;;;;;;;5055341;28;20131;-59
2024/03/15 00:51:10;;;;;;;5.47;2.78;;;;;;;;;;5054942;28;20049;-59
2024/03/15 00:53:36;;;;;;;3.25;2.08;;;;;;;;;;5054871;28;20039;-59
2024/03/15 00:56:04;;;;;;;4.78;2.50;;;;;;;;;;5055093;28;20049;-59
2024/03/15 00:58:30;;;;;;;3.20;2.38;;;;;;;;;;5055403;28;20340;-59
2024/03/15 01:00:56;;;;;;;4.03;2.45;;;;;;;;;;5055057;28;20036;-59
2024/03/15 01:03:23;;;;;;;3.30;2.65;;;;;;;;;;5054451;28;20364;-59
2024/03/15 01:05:49;;;;;;;3.30;2.38;;;;;;;;;;5055194;28;20086;-59
2024/03/15 01:08:15;;;;;;;2.83;2.22;;;;;;;;;;5055212;28;20025;-59
2024/03/15 01:10:41;;;;;;;4.32;2.55;;;;;;;;;;5054598;28;20170;-59
2024/03/15 01:13:07;;;;;;;3.25;2.17;;;;;;;;;;5054456;28;20029;-59
2024/03/15 01:15:33;;;;;;;3.10;2.40;;;;;;;;;;5054652;28;20127;-59
2024/03/15 01:18:01;;;;;;;3.17;2.08;;;;;;;;;;5055001;28;20118;-59
2024/03/15 01:20:27;;;;;;;3.67;2.17;;;;;;;;;;5054863;28;20040;-59
2024/03/15 01:22:52;;;;;;;5.82;2.53;;;;;;;;;;5054623;28;20463;-59
2024/03/15 01:25:18;;;;;;;3.20;2.40;;;;;;;;;;5054865;28;20036;-59
2024/03/15 01:27:44;;;;;;;4.22;2.58;;;;;;;;;;5054252;28;20025;-59
2024/03/15 01:30:10;;;;;;;3.72;2.28;;;;;;;;;;5054259;28;20021;-59
2024/03/15 01:32:36;;;;;;;3.58;1.95;;;;;;;;;;5054415;28;20041;-59
2024/03/15 01:35:03;;;;;;;3.08;1.92;;;;;;;;;;5054088;28;20115;-60
2024/03/15 01:37:29;;;;;;;2.78;2.20;;;;;;;;;;5054104;28;20021;-59
2024/03/15 01:39:55;;;;;;;4.30;2.95;;;;;;;;;;5054611;28;20443;-59
2024/03/15 01:42:21;;;;;;;4.40;2.45;;;;;;;;;;5054005;28;20367;-59
2024/03/15 01:44:53;;;;;;;4.15;2.08;;;;;;;;;;5053957;28;20068;-59
2024/03/15 01:47:20;;;;;;;3.40;2.35;;;;;;;;;;5053984;28;20047;-59
2024/03/15 01:49:46;;;;;;;4.38;2.05;;;;;;;;;;5054234;28;20419;-59
2024/03/15 01:52:13;;;;;;;4.10;1.83;;;;;;;;;;5054061;28;20032;-59
2024/03/15 01:54:39;;;;;;;2.97;1.88;;;;;;;;;;5053136;28;20469;-59
2024/03/15 01:57:06;;;;;;;3.92;2.28;;;;;;;;;;5054313;28;20076;-59
2024/03/15 01:59:32;;;;;;;4.00;2.65;;;;;;;;;;5054131;28;20375;-59
2024/03/15 02:02:04;;;;;;;3.28;2.35;;;;;;;;;;5053723;28;20075;-59
2024/03/15 02:04:31;;;;;;;4.65;2.42;;;;;;;;;;5054018;28;20415;-59
2024/03/15 02:06:57;;;;;;;5.95;2.50;;;;;;;;;;5053673;28;20033;-59
2024/03/15 02:09:23;;;;;;;3.28;2.22;;;;;;;;;;5054557;28;20028;-59
2024/03/15 02:11:50;;;;;;;2.80;2.10;;;;;;;;;;5053946;28;20033;-59
2024/03/15 02:14:16;;;;;;;3.10;2.05;;;;;;;;;;5054296;28;20040;-59
2024/03/15 02:16:43;;;;;;;2.83;1.90;;;;;;;;;;5053753;28;20025;-59
2024/03/15 02:19:09;;;;;;;2.53;1.70;;;;;;;;;;5053845;28;20375;-59
2024/03/15 02:21:35;;;;;;;4.43;2.38;;;;;;;;;;5053515;28;20029;-59
2024/03/15 02:24:02;;;;;;;3.47;2.33;;;;;;;;;;5054088;28;20036;-59
2024/03/15 02:26:28;;;;;;;3.22;2.30;;;;;;;;;;5053529;28;20021;-59
2024/03/15 02:28:54;;;;;;;3.92;2.75;;;;;;;;;;5053582;28;20036;-59
2024/03/15 02:31:23;;;;;;;4.20;2.53;;;;;;;;;;5053478;28;20028;-59
2024/03/15 02:33:49;;;;;;;6.03;2.30;;;;;;;;;;5053318;28;20462;-59
2024/03/15 02:36:15;;;;;;;3.13;2.00;;;;;;;;;;5053680;28;20032;-59
2024/03/15 02:38:41;;;;;;;3.42;2.35;;;;;;;;;;5053619;28;20025;-59
2024/03/15 02:41:13;;;;;;;3.00;2.15;;;;;;;;;;5053810;28;20474;-59
2024/03/15 02:43:39;;;;;;;3.60;2.20;;;;;;;;;;5053536;28;20028;-59
2024/03/15 02:46:05;;;;;;;5.30;2.30;;;;;;;;;;5053448;28;20463;-59
2024/03/15 02:48:32;;;;;;;3.25;2.13;;;;;;;;;;5054148;28;20032;-59
2024/03/15 02:50:59;;;;;;;4.18;2.45;;;;;;;;;;5053208;28;20056;-59
2024/03/15 02:53:25;;;;;;;3.88;2.78;;;;;;;;;;5053189;28;20029;-59
2024/03/15 02:55:51;;;;;;;3.15;2.20;;;;;;;;;;5053344;28;20049;-59
2024/03/15 02:58:19;;;;;;;4.63;2.72;;;;;;;;;;5053200;28;20383;-59
2024/03/15 03:00:46;;;;;;;5.88;2.92;;;;;;;;;;5053112;28;20064;-59
2024/03/15 03:03:12;;;;;;;3.75;2.55;;;;;;;;;;5053656;28;20447;-59
2024/03/15 03:05:39;;;;;;;4.30;2.80;;;;;;;;;;5054831;28;20025;-59
2024/03/15 03:08:05;;;;;;;4.90;2.75;;;;;;;;;;5056964;28;20025;-59
2024/03/15 03:10:31;;;;;;;3.90;2.80;;;;;;;;;;5057446;28;20071;-59
2024/03/15 03:12:57;;;;;;;3.50;2.25;;;;;;;;;;5057198;28;20061;-59
2024/03/15 03:15:23;;;;;;;3.60;2.42;;;;;;;;;;5056759;28;20055;-59
2024/03/15 03:17:49;;;;;;;4.20;2.70;;;;;;;;;;5057025;28;20029;-59
2024/03/15 03:20:23;;;;;;;3.83;2.70;;;;;;;;;;5057087;28;20371;-59
2024/03/15 03:22:49;;;;;;;4.13;2.15;;;;;;;;;;5056699;28;20379;-59
2024/03/15 03:25:15;;;;;;;5.60;2.83;;;;;;;;;;5057086;28;20033;-59
2024/03/15 03:27:41;;;;;;;3.42;2.35;;;;;;;;;;5056275;28;20479;-59
2024/03/15 03:30:09;;;;;;;4.93;2.28;;;;;;;;;;5057034;28;20111;-59
2024/03/15 03:32:35;;;;;;;4.43;2.17;;;;;;;;;;5056270;28;20516;-59
2024/03/15 03:35:04;;;;;;;5.18;2.50;;;;;;;;;;5056377;28;20025;-59
2024/03/15 03:37:30;;;;;;;3.67;2.35;;;;;;;;;;5056358;28;20040;-59
2024/03/15 03:39:56;;;;;;;4.45;2.22;;;;;;;;;;5056386;28;20056;-58
2024/03/15 03:42:22;;;;;;;3.03;1.95;;;;;;;;;;5056376;28;20486;-59
2024/03/15 03:44:49;;;;;;;4.05;2.15;;;;;;;;;;5056237;28;20021;-59
2024/03/15 03:47:15;;;;;;;3.97;3.03;;;;;;;;;;5056244;28;20025;-59
2024/03/15 03:49:41;;;;;;;2.83;2.20;;;;;;;;;;5056199;28;20459;-59
2024/03/15 03:52:07;;;;;;;3.20;1.80;;;;;;;;;;5056078;28;20078;-60
2024/03/15 03:54:33;;;;;;;3.53;2.38;;;;;;;;;;5055953;28;20120;-59
2024/03/15 03:56:59;;;;;;;3.45;1.95;;;;;;;;;;5056620;28;20049;-59
2024/03/15 03:59:28;;;;;;;3.03;2.22;;;;;;;;;;5056320;28;20167;-60
2024/03/15 04:01:54;;;;;;;3.83;2.33;;;;;;;;;;5055865;28;20036;-59
2024/03/15 04:04:21;;;;;;;2.90;2.00;;;;;;;;;;5056440;28;20021;-59
2024/03/15 04:06:51;;;;;;;2.78;1.77;;;;;;;;;;5056322;28;20025;-59
2024/03/15 04:09:18;;;;;;;2.78;1.73;;;;;;;;;;5056089;28;20033;-60
2024/03/15 04:11:45;;;;;;;2.65;1.63;;;;;;;;;;5056491;28;20033;-59
2024/03/15 04:14:13;;;;;;;3.00;2.10;;;;;;;;;;5056400;28;20072;-59
2024/03/15 04:16:39;;;;;;;3.00;2.33;;;;;;;;;;5055260;28;20025;-60
2024/03/15 04:19:08;;;;;;;7.22;2.33;;;;;;;;;;5056121;28;20359;-59
2024/03/15 04:21:34;;;;;;;3.75;2.20;;;;;;;;;;5055458;28;20029;-59
2024/03/15 04:24:03;;;;;;;3.50;2.25;;;;;;;;;;5055969;28;20051;-59
2024/03/15 04:26:31;;;;;;;3.97;1.98;;;;;;;;;;5055423;28;20033;-59
2024/03/15 04:28:57;;;;;;;3.13;2.25;;;;;;;;;;5055475;28;20032;-59
2024/03/15 04:31:23;;;;;;;2.95;1.98;;;;;;;;;;5055691;28;20127;-59
2024/03/15 04:33:52;;;;;;;3.90;1.90;;;;;;;;;;5055185;28;20112;-59
2024/03/15 04:36:18;;;;;;;2.63;1.73;;;;;;;;;;5055594;28;20029;-59
2024/03/15 04:38:44;;;;;;;4.20;1.58;;;;;;;;;;5055001;28;20032;-59
2024/03/15 04:41:10;;;;;;;2.85;2.13;;;;;;;;;;5055497;28;20100;-59
2024/03/15 04:43:37;;;;;;;3.70;1.60;;;;;;;;;;5055428;28;20037;-59
2024/03/15 04:46:03;;;;;;;2.28;1.40;;;;;;;;;;5054942;28;20036;-59
2024/03/15 04:48:29;;;;;;;2.17;1.55;;;;;;;;;;5055425;28;20375;-59
2024/03/15 04:50:55;;;;;;;3.38;1.63;;;;;;;;;;5054966;28;20031;-59
2024/03/15 04:53:21;;;;;;;4.10;1.90;;;;;;;;;;5055382;28;20037;-59
2024/03/15 04:55:47;;;;;;;4.32;1.98;;;;;;;;;;5054983;28;20107;-59
2024/03/15 04:58:14;;;;;;;2.05;1.40;;;;;;;;;;5055182;28;20036;-59
2024/03/15 05:00:41;;;;;;;2.63;1.90;;;;;;;;;;5054753;28;20025;-59
2024/03/15 05:03:07;;;;;;;2.80;1.67;;;;;;;;;;5054783;28;20079;-59
2024/03/15 05:05:33;;;;;;;2.65;1.60;;;;;;;;;;5055061;28;20371;-59
2024/03/15 05:07:59;;;;;;;2.40;1.83;;;;;;;;;;5054754;28;20364;-59
2024/03/15 05:10:25;;;;;;;2.97;1.63;;;;;;;;;;5055217;28;20081;-59
2024/03/15 05:12:51;;;;;;;2.45;1.67;;;;;;;;;;5054570;28;20037;-59
2024/03/15 05:15:17;;;;;;;2.35;1.50;;;;;;;;;;5055390;28;20036;-59
2024/03/15 05:17:43;;;;;;;3.08;1.90;;;;;;;;;;5055093;28;20016;-59
2024/03/15 05:20:10;;;;;;;2.72;1.58;;;;;;;;;;5055242;28;20025;-59
2024/03/15 05:22:36;;;;;;;3.40;1.45;;;;;;;;;;5054450;28;20028;-59
2024/03/15 05:25:05;;;;;;;2.17;1.30;;;;;;;;;;5054737;28;20075;-59
2024/03/15 05:27:32;;;;;;;2.67;1.60;;;;;;;;;;5054868;28;20398;-59
2024/03/15 05:30:00;;;;;;;2.53;1.42;;;;;;;;;;5053817;28;20029;-59
2024/03/15 05:32:26;;;;;;;1.70;1.20;;;;;;;;;;5053877;28;20459;-59
2024/03/15 05:34:51;;;;;;;2.72;1.55;;;;;;;;;;5054057;28;20478;-59
2024/03/15 05:37:17;;;;;;;2.08;1.35;;;;;;;;;;5054651;28;20021;-59
2024/03/15 05:39:43;;;;;;;2.65;1.63;;;;;;;;;;5054468;28;20021;-60
2024/03/15 05:42:10;;;;;;;4.72;1.60;;;;;;;;;;5054036;28;20036;-60
2024/03/15 05:44:36;;;;;;;2.45;2.00;;;;;;;;;;5054783;28;20048;-59
2024/03/15 05:47:02;;;;;;;3.15;1.83;;;;;;;;;;5054471;28;20036;-59
2024/03/15 05:49:28;;;;;;;5.22;1.80;;;;;;;;;;5054464;28;20029;-59
2024/03/15 05:51:54;;;;;;;2.60;1.65;;;;;;;;;;5054683;28;20028;-58
2024/03/15 05:54:41;;;;;;;3.13;1.83;;;;;;;;;;5053857;28;20378;-58
2024/03/15 05:57:08;;;;;;;3.97;1.30;;;;;;;;;;5053661;28;20095;-59
2024/03/15 05:59:34;;;;;;;2.83;1.58;;;;;;;;;;5054385;28;20035;-60
2024/03/15 06:02:00;;;;;;;3.75;1.77;;;;;;;;;;5052449;28;20021;-60
2024/03/15 06:04:26;;;;;;;3.17;1.77;;;;;;;;;;5054350;28;20057;-60
2024/03/15 06:06:52;;;;;;;3.08;1.60;;;;;;;;;;5053662;28;20028;-60
2024/03/15 06:09:19;;;;;;;2.63;1.50;;;;;;;;;;5054311;28;20104;-59
2024/03/15 06:11:45;;;;;;;2.35;1.30;;;;;;;;;;5053671;28;20518;-58
2024/03/15 06:14:26;;;;;;;3.42;1.52;;;;;;;;;;5054080;28;20112;-59
2024/03/15 06:16:52;;;;;;;2.13;1.30;;;;;;;;;;5053275;28;20025;-59
2024/03/15 06:19:19;;;;;;;1.70;1.20;;;;;;;;;;5053528;28;20106;-59
2024/03/15 06:21:46;;;;;;;5.10;1.52;;;;;;;;;;5053571;28;20090;-59
2024/03/15 06:24:14;;;;;;;6.72;1.60;;;;;;;;;;5053558;28;20037;-59
2024/03/15 06:26:40;;;;;;;2.53;1.38;;;;;;;;;;5053384;28;20021;-59
2024/03/15 06:29:08;;;;;;;2.03;1.30;;;;;;;;;;5054104;28;20359;-60
2024/03/15 06:31:34;;;;;;;1.90;1.27;;;;;;;;;;5053690;28;20478;-59
2024/03/15 06:34:07;;;;;;;3.13;1.25;;;;;;;;;;5053736;28;20037;-60
2024/03/15 06:36:41;;;;;;;2.65;1.13;;;;;;;;;;5053157;28;20459;-58
2024/03/15 06:39:19;;;;;;;2.40;1.20;;;;;;;;;;5053718;28;20106;-59
2024/03/15 06:41:50;;;;;;;2.22;1.48;;;;;;;;;;5057348;28;20061;-60
2024/03/15 06:49:43;;;;;;;3.58;1.70;;;;;;;;;;5057434;28;20028;-58
2024/03/15 06:54:55;;;;;;;3.08;1.58;;;;;;;;;;5057362;28;20548;-60
2024/03/15 06:57:22;;;;;;;2.92;1.63;;;;;;;;;;5057575;28;20439;-58
2024/03/15 06:59:48;;;;;;;5.07;2.00;;;;;;;;;;5057551;28;20374;-58
2024/03/15 07:02:14;;;;;;;2.30;1.40;;;;;;;;;;5057414;28;20029;-58
2024/03/15 07:04:40;;;;;;;2.38;1.48;;;;;;;;;;5056825;28;20033;-58
2024/03/15 07:07:07;;;;;;;3.58;1.70;;;;;;;;;;5057341;28;20033;-59
2024/03/15 07:09:33;;;;;;;2.17;1.50;;;;;;;;;;5057236;28;20068;-59
2024/03/15 07:11:59;;;;;;;2.78;1.40;;;;;;;;;;5056889;28;20036;-58
2024/03/15 07:14:25;;;;;;;3.85;2.30;;;;;;;;;;5057139;28;20033;-59
2024/03/15 07:16:51;;;;;;;2.30;1.65;;;;;;;;;;5056270;28;20033;-59
2024/03/15 07:19:18;;;;;;;2.83;1.55;;;;;;;;;;5056604;28;20029;-59
2024/03/15 07:21:44;;;;;;;4.07;2.00;;;;;;;;;;5057042;28;20348;-58
2024/03/15 07:24:10;;;;;;;3.65;1.75;;;;;;;;;;5057074;28;20032;-59
2024/03/15 07:26:37;;;;;;;3.05;1.30;;;;;;;;;;5056678;28;20029;-59
2024/03/15 07:29:04;;;;;;;3.17;1.58;;;;;;;;;;5057301;28;20065;-59
2024/03/15 07:31:30;;;;;;;3.95;1.35;;;;;;;;;;5056324;28;20094;-59
2024/03/15 07:33:59;;;;;;;2.67;1.40;;;;;;;;;;5056354;28;20037;-58
2024/03/15 07:36:27;;;;;;;3.38;1.80;;;;;;;;;;5056462;28;20029;-58
2024/03/15 07:38:53;;;;;;;2.30;1.30;;;;;;;;;;5057072;28;20036;-58
2024/03/15 07:41:21;;;;;;;3.30;1.50;;;;;;;;;;5056481;28;20028;-59
2024/03/15 07:43:47;;;;;;;2.47;1.42;;;;;;;;;;5056272;28;20060;-58
2024/03/15 07:46:13;;;;;;;3.00;1.73;;;;;;;;;;5056179;28;20077;-58
2024/03/15 07:48:41;;;;;;;3.42;1.40;;;;;;;;;;5056375;28;20025;-58
2024/03/15 07:51:07;;;;;;;4.95;1.27;;;;;;;;;;5055881;28;20028;-59
2024/03/15 07:53:33;;;;;;;3.35;1.23;;;;;;;;;;5055627;28;20041;-59
2024/03/15 07:56:03;;;;;;;2.90;1.58;;;;;;;;;;5056029;28;20048;-59
2024/03/15 07:58:29;;;;;;;3.03;1.13;;;;;;;;;;5056717;28;20025;-60
2024/03/15 08:00:56;;;;;;;2.42;1.23;;;;;;;;;;5056172;28;20021;-59
2024/03/15 08:03:23;;;;;;;3.00;1.52;;;;;;;;;;5056265;28;20024;-60
2024/03/15 08:05:49;;;;;;;2.83;1.88;;;;;;;;;;5056262;28;20017;-58
2024/03/15 08:08:16;;;;;;;2.15;1.38;;;;;;;;;;5056796;28;20021;-60
2024/03/15 08:10:42;;;;;;;2.63;1.38;;;;;;;;;;5055841;28;20028;-60
2024/03/15 08:13:11;;;;;;;2.58;1.48;;;;;;;;;;5055751;28;20029;-60
2024/03/15 08:15:37;;;;;;;5.97;1.83;;;;;;;;;;5055938;28;20454;-55
2024/03/15 08:18:05;;;;;;;1.60;1.08;;;;;;;;;;5055695;28;20036;-56
2024/03/15 08:20:32;;;;;;;2.88;1.30;;;;;;;;;;5055696;28;20036;-54
2024/03/15 08:22:58;;;;;;;4.78;1.60;;;;;;;;;;5055564;28;20025;-56
2024/03/15 08:25:24;;;;;;;2.35;1.13;;;;;;;;;;5055382;28;20036;-55
2024/03/15 08:27:50;;;;;;;2.42;1.83;;;;;;;;;;5055582;28;20025;-56
2024/03/15 08:30:16;;;;;;;3.15;1.45;;;;;;;;;;5056140;28;20056;-57
2024/03/15 08:32:43;;;;;;;3.28;1.63;;;;;;;;;;5055291;28;20405;-56
2024/03/15 08:35:13;;;;;;;2.00;1.13;;;;;;;;;;5055939;28;20040;-56
2024/03/15 08:37:42;;;;;;;3.08;2.08;;;;;;;;;;5055923;28;20115;-56
2024/03/15 08:40:09;;;;;;;5.72;1.70;;;;;;;;;;5055902;28;20029;-56
2024/03/15 08:42:35;;;;;;;1.65;1.20;;;;;;;;;;5055261;28;20032;-57
2024/03/15 08:45:01;;;;;;;2.70;1.00;;;;;;;;;;5055770;28;20459;-57
2024/03/15 08:47:29;;;;;;;2.58;1.73;;;;;;;;;;5055063;28;20371;-57
2024/03/15 08:50:00;;;;;;;1.63;0.93;;;;;;;;;;5055730;28;20056;-57
2024/03/15 08:52:26;;;;;;;2.05;1.02;;;;;;;;;;5055066;28;20535;-57
2024/03/15 08:54:52;;;;;;;3.28;1.52;;;;;;;;;;5055200;28;20140;-57
2024/03/15 08:57:18;;;;;;;2.47;1.38;;;;;;;;;;5055376;28;20128;-56
2024/03/15 08:59:44;;;;;;;2.00;1.10;;;;;;;;;;5055220;28;20424;-57
2024/03/15 09:02:12;;;;;;;2.95;1.33;;;;;;;;;;5054661;28;20048;-57
2024/03/15 09:04:37;;;;;;;3.17;0.90;;;;;;;;;;5054241;28;20095;-57
2024/03/15 09:07:05;;;;;;;1.98;1.10;;;;;;;;;;5055057;28;20025;-58
2024/03/15 09:09:39;;;;;;;2.53;1.08;;;;;;;;;;5055376;28;20029;-58
2024/03/15 09:12:05;;;;;;;1.92;0.95;;;;;;;;;;5055214;28;20211;-57
2024/03/15 09:14:35;;;;;;;3.72;1.38;;;;;;;;;;5053327;28;20037;-58
2024/03/15 09:17:08;;;;;;;2.80;1.23;;;;;;;;;;5054594;28;20048;-57
2024/03/15 09:19:34;;;;;;;3.90;1.20;;;;;;;;;;5055441;28;20032;-56
2024/03/15 09:22:00;;;;;;;1.88;0.90;;;;;;;;;;5054180;28;20029;-58
2024/03/15 09:24:26;;;;;;;3.05;1.48;;;;;;;;;;5054076;28;20032;-55
2024/03/15 09:26:52;;;;;;;1.42;0.85;;;;;;;;;;5054452;28;20029;-57
2024/03/15 09:29:19;;;;;;;2.47;1.33;;;;;;;;;;5054801;28;20020;-57
2024/03/15 09:31:51;;;;;;;2.22;1.13;;;;;;;;;;5053598;28;20493;-58
2024/03/15 09:34:17;;;;;;;2.40;1.23;;;;;;;;;;5054698;28;20370;-57
2024/03/15 09:36:43;;;;;;;2.15;0.93;;;;;;;;;;5054681;28;20029;-58
2024/03/15 09:39:13;;;;;;;2.58;1.45;;;;;;;;;;5054415;28;20082;-57
2024/03/15 09:41:39;;;;;;;2.53;1.13;;;;;;;;;;5054014;28;20421;-58
2024/03/15 09:44:13;;;;;;;1.60;0.80;;;;;;;;;;5054939;28;20057;-58
2024/03/15 09:46:39;;;;;;;6.45;1.50;;;;;;;;;;5054613;28;20033;-58
2024/03/15 09:49:05;;;;;;;3.55;1.00;;;;;;;;;;5054394;28;20029;-58
2024/03/15 09:51:32;;;;;;;2.58;1.35;;;;;;;;;;5053753;28;20036;-58
2024/03/15 09:53:58;;;;;;;1.30;0.60;;;;;;;;;;5054334;28;20040;-57
2024/03/15 09:56:25;;;;;;;2.10;1.10;;;;;;;;;;5054198;28;20084;-58
2024/03/15 09:58:52;;;;;;;1.60;0.75;;;;;;;;;;5054707;28;20031;-57
2024/03/15 10:01:18;;;;;;;2.42;1.27;;;;;;;;;;5053901;28;20179;-59
2024/03/15 10:03:48;;;;;;;1.98;0.95;;;;;;;;;;5054292;28;20055;-58
2024/03/15 10:06:17;;;;;;;1.70;0.82;;;;;;;;;;5053800;28;20017;-58
2024/03/15 10:08:44;;;;;;;1.92;0.77;;;;;;;;;;5054367;28;20028;-58
2024/03/15 10:11:10;;;;;;;1.70;0.70;;;;;;;;;;5054526;28;20021;-58
2024/03/15 10:13:36;;;;;;;2.38;0.90;;;;;;;;;;5053620;28;20471;-60
2024/03/15 10:16:04;;;;;;;2.80;1.45;;;;;;;;;;5052659;28;20074;-58
2024/03/15 10:18:34;;;;;;;1.63;0.88;;;;;;;;;;5053764;28;20029;-58
2024/03/15 10:21:00;;;;;;;2.90;0.93;;;;;;;;;;5053367;28;20505;-57
2024/03/15 10:23:26;;;;;;;1.48;0.60;;;;;;;;;;5053601;28;20037;-55
2024/03/15 10:25:53;;;;;;;2.10;0.90;;;;;;;;;;5053474;28;20021;-58
2024/03/15 10:28:22;;;;;;;1.52;0.80;;;;;;;;;;5054233;28;20025;-58
2024/03/15 10:30:49;;;;;;;1.67;0.73;;;;;;;;;;5053810;28;20029;-58
2024/03/15 10:33:16;;;;;;;4.50;1.23;;;;;;;;;;5054454;28;20108;-59
2024/03/15 10:35:42;;;;;;;1.38;0.60;;;;;;;;;;5053585;28;20070;-58
2024/03/15 10:38:09;;;;;;;1.65;0.63;;;;;;;;;;5053256;28;20021;-59
2024/03/15 10:40:35;;;;;;;3.20;1.10;;;;;;;;;;5053469;28;20037;-58
2024/03/15 10:43:02;;;;;;;3.67;0.68;;;;;;;;;;5053979;28;20025;-59
2024/03/15 10:45:28;;;;;;;1.88;0.60;;;;;;;;;;5053445;28;20418;-58
2024/03/15 10:47:55;;;;;;;1.30;0.70;;;;;;;;;;5053289;28;20017;-58
2024/03/15 10:50:22;;;;;;;1.05;0.52;;;;;;;;;;5053722;28;20479;-58
2024/03/15 10:52:52;;;;;;;1.77;0.73;;;;;;;;;;5053019;28;20029;-58
2024/03/15 10:55:18;;;;;;;1.27;0.57;;;;;;;;;;5053969;28;20111;-58
2024/03/15 10:57:44;;;;;;;1.77;0.88;;;;;;;;;;5054227;28;20501;-58
2024/03/15 11:00:20;;;;;;;1.23;0.60;;;;;;;;;;5053572;28;20060;-58
2024/03/15 11:02:49;;;;;;;1.73;0.90;;;;;;;;;;5053718;28;20025;-57
2024/03/15 11:05:15;;;;;;;2.78;0.70;;;;;;;;;;5053136;28;20021;-58
2024/03/15 11:07:41;;;;;;;1.35;0.75;;;;;;;;;;5053528;28;20027;-57
2024/03/15 11:10:09;;;;;;;1.77;0.80;;;;;;;;;;5053746;28;20029;-56
2024/03/15 11:12:38;;;;;;;1.85;1.00;;;;;;;;;;5052807;28;20056;-57
2024/03/15 11:15:17;;;;;;;3.22;1.40;;;;;;;;;;5053836;28;20321;-56
2024/03/15 11:17:43;;;;;;;3.00;1.40;;;;;;;;;;5053546;28;20025;-58
2024/03/15 11:20:13;;;;;;;3.88;0.80;;;;;;;;;;5052940;28;20021;-58
2024/03/15 11:22:39;;;;;;;4.15;1.40;;;;;;;;;;5052916;28;20029;-58
2024/03/15 11:25:06;;;;;;;2.05;1.02;;;;;;;;;;5052962;28;20064;-58
2024/03/15 11:27:32;;;;;;;2.15;1.35;;;;;;;;;;5055620;28;20057;-57
2024/03/15 11:29:58;;;;;;;2.17;1.23;;;;;;;;;;5057452;28;20036;-58
2024/03/15 11:32:25;;;;;;;2.20;1.20;;;;;;;;;;5055340;28;20317;-57
2024/03/15 11:34:51;;;;;;;2.13;0.90;;;;;;;;;;5056959;28;20037;-57
2024/03/15 11:37:22;;;;;;;1.63;0.80;;;;;;;;;;5056408;28;20027;-58
2024/03/15 11:40:00;;;;;;;1.75;1.02;;;;;;;;;;5056320;28;20509;-57
2024/03/15 11:42:26;;;;;;;2.85;1.25;;;;;;;;;;5056974;28;20030;-58
2024/03/15 11:44:54;;;;;;;1.77;0.95;;;;;;;;;;5057104;28;20025;-57
2024/03/15 11:47:20;;;;;;;2.70;1.38;;;;;;;;;;5056500;28;20025;-58
2024/03/15 11:49:46;;;;;;;1.90;1.10;;;;;;;;;;5056747;28;20025;-58
2024/03/15 11:52:12;;;;;;;5.32;1.08;;;;;;;;;;5056766;28;20025;-58
2024/03/15 11:54:38;;;;;;;2.05;0.73;;;;;;;;;;5056533;28;20036;-58
2024/03/15 11:57:04;;;;;;;2.17;1.00;;;;;;;;;;5056059;28;20049;-58
2024/03/15 11:59:31;;;;;;;3.05;0.90;;;;;;;;;;5056437;28;20089;-58
2024/03/15 12:01:57;;;;;;;1.30;0.85;;;;;;;;;;5056315;28;20549;-58
2024/03/15 12:04:26;;;;;;;0.88;0.47;;;;;;;;;;5056559;28;20064;-58
2024/03/15 12:06:52;;;;;;;3.05;1.15;;;;;;;;;;5055403;28;20347;-58
2024/03/15 12:09:18;;;;;;;3.30;0.93;;;;;;;;;;5056244;28;20017;-57
2024/03/15 12:11:44;;;;;;;2.33;1.25;;;;;;;;;;5055540;28;20092;-57
2024/03/15 12:14:13;;;;;;;2.45;0.95;;;;;;;;;;5055432;28;20053;-58
2024/03/15 12:16:45;;;;;;;1.55;0.80;;;;;;;;;;5056305;28;20447;-58
2024/03/15 12:19:17;;;;;;;2.25;0.90;;;;;;;;;;5056323;28;20029;-58
2024/03/15 12:21:46;;;;;;;2.17;1.15;;;;;;;;;;5056168;28;20029;-58
2024/03/15 12:24:12;;;;;;;1.50;0.80;;;;;;;;;;5055813;28;20048;-58
2024/03/15 12:26:38;;;;;;;1.80;0.70;;;;;;;;;;5055536;28;20083;-58
2024/03/15 12:29:04;;;;;;;1.35;0.80;;;;;;;;;;5056034;28;20044;-58
2024/03/15 12:31:30;;;;;;;3.03;1.17;;;;;;;;;;5055324;28;20114;-58
2024/03/15 12:33:56;;;;;;;1.65;0.90;;;;;;;;;;5055490;28;20525;-58
2024/03/15 12:36:22;;;;;;;1.33;0.63;;;;;;;;;;5055803;28;20037;-58
2024/03/15 12:38:48;;;;;;;2.47;1.10;;;;;;;;;;5055342;28;20363;-58
2024/03/15 12:41:14;;;;;;;3.22;0.75;;;;;;;;;;5055789;28;20017;-56
2024/03/15 12:43:40;;;;;;;1.92;0.90;;;;;;;;;;5055154;28;20091;-58
2024/03/15 12:46:11;;;;;;;1.27;0.57;;;;;;;;;;5055485;28;20418;-57
2024/03/15 12:48:37;;;;;;;2.83;1.17;;;;;;;;;;5055266;28;20025;-58
2024/03/15 12:51:03;;;;;;;2.00;0.77;;;;;;;;;;5055266;28;20025;-58
2024/03/15 12:53:29;;;;;;;2.15;0.95;;;;;;;;;;5054675;28;20058;-57
2024/03/15 12:55:56;;;;;;;1.90;0.90;;;;;;;;;;5054783;28;20135;-58
2024/03/15 12:58:21;;;;;;;2.72;1.08;;;;;;;;;;5055552;28;20447;-57
2024/03/15 13:00:50;;;;;;;2.13;0.98;;;;;;;;;;5055560;28;20108;-57
2024/03/15 13:03:18;;;;;;;1.80;1.00;;;;;;;;;;5055189;28;20417;-57
2024/03/15 13:05:44;;;;;;;1.42;0.80;;;;;;;;;;5055658;28;20056;-58
2024/03/15 13:08:10;;;;;;;2.05;1.10;;;;;;;;;;5055387;28;20021;-58
2024/03/15 13:10:36;;;;;;;2.13;1.10;;;;;;;;;;5055233;28;20363;-58
2024/03/15 13:13:06;;;;;;;3.83;1.10;;;;;;;;;;5054439;28;20498;-58
2024/03/15 13:15:35;;;;;;;3.45;1.20;;;;;;;;;;5055136;28;20087;-58
2024/03/15 13:18:01;;;;;;;1.83;0.87;;;;;;;;;;5054533;28;20098;-58
2024/03/15 13:20:28;;;;;;;3.05;1.38;;;;;;;;;;5055109;28;20255;-57
2024/03/15 13:22:54;;;;;;;2.47;1.17;;;;;;;;;;5055033;28;20025;-58
2024/03/15 13:25:23;;;;;;;1.77;1.05;;;;;;;;;;5054771;28;20048;-58
2024/03/15 13:27:50;;;;;;;2.20;1.38;;;;;;;;;;5054971;28;20371;-59
2024/03/15 13:30:17;;;;;;;2.50;1.45;;;;;;;;;;5054399;28;20032;-59
2024/03/15 13:32:43;;;;;;;3.47;1.63;;;;;;;;;;5054305;28;20108;-59
2024/03/15 13:35:12;;;;;;;2.42;1.20;;;;;;;;;;5054738;28;20397;-59
2024/03/15 13:37:38;;;;;;;2.05;1.23;;;;;;;;;;5054031;28;20028;-59
2024/03/15 13:40:08;;;;;;;2.35;1.20;;;;;;;;;;5054127;28;20021;-60
2024/03/15 13:42:34;;;;;;;;;;;;;;;;;;5054350;28;20463;-57
2024/03/15 13:45:00;;;;;;;2.00;0.95;;;;;;;;;;5054152;28;19904;-57
2024/03/15 13:47:27;;;;;;;1.63;0.80;;;;;;;;;;5054599;28;20017;-58
2024/03/15 13:49:53;;;;;;;1.75;0.80;;;;;;;;;;5053790;28;20032;-57
2024/03/15 13:52:20;;;;;;;2.35;1.10;;;;;;;;;;5054475;28;20021;-58
2024/03/15 13:54:46;;;;;;;2.95;1.38;;;;;;;;;;5053936;28;20072;-58
2024/03/15 13:57:12;;;;;;;1.35;0.70;;;;;;;;;;5054262;28;20045;-58
2024/03/15 13:59:38;;;;;;;3.75;0.77;;;;;;;;;;5053987;28;20034;-58
2024/03/15 14:02:04;;;;;;;2.22;0.88;;;;;;;;;;5054201;28;20025;-57
2024/03/15 14:04:30;;;;;;;1.15;0.60;;;;;;;;;;5054165;28;20033;-58
2024/03/15 14:06:56;;;;;;;2.33;1.00;;;;;;;;;;5053795;28;20379;-56
2024/03/15 14:09:25;;;;;;;3.38;1.00;;;;;;;;;;5053159;28;20433;-58
2024/03/15 14:11:54;;;;;;;1.58;0.80;;;;;;;;;;5054140;28;20028;-58
2024/03/15 14:14:20;;;;;;;1.95;1.02;;;;;;;;;;5054061;28;20029;-57
2024/03/15 14:16:46;;;;;;;1.23;0.70;;;;;;;;;;5053568;28;20025;-58
2024/03/15 14:19:16;;;;;;;2.05;1.10;;;;;;;;;;5053987;28;20021;-58
2024/03/15 14:21:42;;;;;;;1.45;0.65;;;;;;;;;;5053868;28;20468;-58
2024/03/15 14:24:10;;;;;;;2.42;0.93;;;;;;;;;;5053324;28;20025;-58
2024/03/15 14:26:37;;;;;;;5.03;0.80;;;;;;;;;;5053549;28;20028;-58
2024/03/15 14:29:08;;;;;;;1.20;0.40;;;;;;;;;;5054202;28;20024;-58
2024/03/15 14:31:34;;;;;;;1.50;0.80;;;;;;;;;;5053523;28;20071;-58
2024/03/15 14:34:00;;;;;;;2.10;0.70;;;;;;;;;;5053642;28;20033;-58
2024/03/15 14:36:30;;;;;;;2.83;0.55;;;;;;;;;;5053820;28;20031;-58
2024/03/15 14:38:56;;;;;;;3.53;1.15;;;;;;;;;;5053457;28;20025;-58
2024/03/15 14:41:23;;;;;;;2.15;0.70;;;;;;;;;;5053479;28;20028;-58
2024/03/15 14:43:49;;;;;;;1.50;0.65;;;;;;;;;;5053998;28;20132;-57
2024/03/15 14:46:17;;;;;;;2.88;1.20;;;;;;;;;;5054248;28;20120;-57
2024/03/15 14:48:43;;;;;;;2.03;0.88;;;;;;;;;;5054313;28;20431;-55
2024/03/15 14:51:09;;;;;;;2.10;0.70;;;;;;;;;;5053619;28;20100;-58